createdAt,value
2022-09-11T00:01:01.157Z,89.10
2022-09-11T00:02:11.462Z,89.10
2022-09-11T00:03:14.161Z,89.20
2022-09-11T00:04:18.288Z,89.20
2022-09-11T00:05:20.955Z,89.30
2022-09-11T00:06:30.601Z,89.30
2022-09-11T00:07:33.100Z,89.40
2022-09-11T00:08:36.587Z,89.40
2022-09-11T00:09:39.299Z,89.40
2022-09-11T00:10:44.931Z,89.50
2022-09-11T00:11:48.526Z,89.50
2022-09-11T00:12:52.091Z,89.60
2022-09-11T00:13:56.511Z,89.60
2022-09-11T00:14:58.772Z,89.60
2022-09-11T00:16:03.199Z,89.70
2022-09-11T00:17:07.067Z,89.70
2022-09-11T00:18:13.293Z,89.70
2022-09-11T00:19:19.986Z,89.80
2022-09-11T00:20:22.698Z,89.80
2022-09-11T00:21:27.277Z,89.80
2022-09-11T00:22:29.585Z,89.90
2022-09-11T00:23:35.113Z,89.80
2022-09-11T00:24:37.337Z,89.80
2022-09-11T00:25:41.325Z,89.80
2022-09-11T00:26:47.867Z,89.80
2022-09-11T00:27:53.800Z,89.80
2022-09-11T00:28:57.298Z,89.80
2022-09-11T00:30:01.549Z,89.80
2022-09-11T00:31:07.733Z,89.80
2022-09-11T00:32:12.503Z,89.80
2022-09-11T00:33:16.101Z,89.80
2022-09-11T00:34:19.863Z,89.80
2022-09-11T00:35:22.480Z,89.90
2022-09-11T00:36:29.247Z,89.90
2022-09-11T00:37:31.655Z,89.90
2022-09-11T00:38:38.622Z,89.90
2022-09-11T00:39:41.785Z,90.00
2022-09-11T00:40:50.352Z,90.00
2022-09-11T00:41:56.457Z,90.00
2022-09-11T00:43:00.361Z,90.10
2022-09-11T00:44:07.311Z,90.10
2022-09-11T00:45:22.451Z,90.10
2022-09-11T00:46:34.423Z,90.20
2022-09-11T00:47:37.250Z,90.20
2022-09-11T00:48:40.772Z,90.20
2022-09-11T00:49:46.653Z,90.20
2022-09-11T00:50:51.749Z,90.20
2022-09-11T00:52:01.200Z,90.30
2022-09-11T00:53:09.911Z,90.30
2022-09-11T00:54:14.957Z,90.30
2022-09-11T00:55:23.060Z,90.30
2022-09-11T00:56:31.365Z,90.30
2022-09-11T00:57:40.122Z,90.30
2022-09-11T00:58:47.004Z,90.30
2022-09-11T00:59:52.931Z,90.30
2022-09-11T01:00:57.258Z,90.30
2022-09-11T01:02:00.703Z,90.30
2022-09-11T01:03:03.713Z,90.30
2022-09-11T01:04:08.969Z,90.30
2022-09-11T01:05:11.950Z,90.30
2022-09-11T01:06:15.533Z,90.30
2022-09-11T01:07:19.874Z,90.20
2022-09-11T01:09:27.655Z,90.30
2022-09-11T01:10:42.932Z,90.30
2022-09-11T01:11:57.850Z,90.20
2022-09-11T01:13:10.503Z,90.20
2022-09-11T01:14:34.474Z,90.30
2022-09-11T01:15:48.758Z,90.20
2022-09-11T01:17:05.264Z,90.20
2022-09-11T01:18:16.122Z,90.40
2022-09-11T01:19:37.128Z,90.20
2022-09-11T01:21:06.060Z,90.40
2022-09-11T01:22:34.196Z,90.20
2022-09-11T01:24:09.329Z,90.40
2022-09-11T01:25:27.944Z,90.20
2022-09-11T01:26:58.146Z,90.20
2022-09-11T01:28:06.247Z,90.40
2022-09-11T01:29:18.964Z,90.20
2022-09-11T01:30:24.307Z,90.40
2022-09-11T01:31:36.412Z,90.40
2022-09-11T01:33:06.891Z,90.40
2022-09-11T01:34:19.437Z,90.40
2022-09-11T01:35:31.925Z,90.40
2022-09-11T01:36:42.075Z,90.40
2022-09-11T01:37:54.379Z,90.40
2022-09-11T01:39:02.179Z,90.40
2022-09-11T01:41:28.477Z,90.40
2022-09-11T01:42:35.948Z,90.40
2022-09-11T01:43:45.259Z,90.40
2022-09-11T01:44:52.592Z,90.50
2022-09-11T01:45:57.930Z,90.50
2022-09-11T01:47:07.088Z,90.50
2022-09-11T01:48:16.477Z,90.50
2022-09-11T01:49:27.504Z,90.50
2022-09-11T01:51:41.663Z,90.50
2022-09-11T01:52:51.429Z,90.60
2022-09-11T01:53:57.044Z,90.60
2022-09-11T01:55:05.951Z,90.70
2022-09-11T01:56:15.352Z,90.70
2022-09-11T01:57:27.480Z,90.70
2022-09-11T01:58:32.895Z,90.70
2022-09-11T01:59:43.347Z,90.70
2022-09-11T02:00:52.230Z,90.80
2022-09-11T02:01:59.298Z,90.80
2022-09-11T02:03:15.343Z,90.90
2022-09-11T02:04:22.201Z,90.90
2022-09-11T02:05:30.595Z,90.90
2022-09-11T02:06:42.159Z,90.90
2022-09-11T02:07:52.243Z,91.00
2022-09-11T02:09:00.134Z,91.00
2022-09-11T02:10:09.609Z,91.00
2022-09-11T02:11:17.531Z,91.00
2022-09-11T02:12:24.361Z,91.00
2022-09-11T02:13:33.603Z,91.00
2022-09-11T02:14:42.199Z,91.00
2022-09-11T02:15:52.362Z,91.00
2022-09-11T02:17:14.187Z,91.00
2022-09-11T02:18:26.894Z,91.00
2022-09-11T02:19:31.426Z,91.10
2022-09-11T02:20:36.341Z,91.10
2022-09-11T02:21:38.754Z,91.10
2022-09-11T02:22:45.445Z,91.20
2022-09-11T02:23:47.934Z,91.20
2022-09-11T02:24:52.600Z,91.20
2022-09-11T02:25:54.981Z,91.20
2022-09-11T02:27:03.754Z,91.20
2022-09-11T02:28:07.309Z,91.20
2022-09-11T02:29:11.302Z,91.30
2022-09-11T02:30:15.188Z,91.30
2022-09-11T02:31:20.000Z,91.30
2022-09-11T02:32:26.796Z,91.30
2022-09-11T02:33:36.053Z,91.30
2022-09-11T02:34:42.992Z,91.30
2022-09-11T02:35:53.946Z,91.30
2022-09-11T02:37:19.262Z,91.30
2022-09-11T02:38:34.203Z,91.30
2022-09-11T02:40:20.595Z,91.40
2022-09-11T02:41:32.921Z,91.40
2022-09-11T02:42:59.591Z,91.40
2022-09-11T02:44:16.236Z,91.40
2022-09-11T02:45:36.906Z,91.40
2022-09-11T02:47:04.607Z,91.40
2022-09-11T02:48:28.421Z,91.40
2022-09-11T02:49:43.384Z,91.40
2022-09-11T02:50:54.868Z,91.40
2022-09-11T02:52:08.955Z,91.40
2022-09-11T02:53:22.136Z,91.40
2022-09-11T02:54:34.805Z,91.40
2022-09-11T02:55:57.761Z,91.40
2022-09-11T02:57:07.944Z,91.40
2022-09-11T02:58:18.149Z,91.40
2022-09-11T02:59:29.085Z,91.40
2022-09-11T03:00:35.332Z,91.40
2022-09-11T03:01:53.385Z,91.40
2022-09-11T03:02:58.618Z,91.50
2022-09-11T03:04:02.119Z,91.50
2022-09-11T03:05:05.248Z,91.50
2022-09-11T03:06:14.854Z,91.50
2022-09-11T03:07:17.398Z,91.50
2022-09-11T03:08:21.957Z,91.50
2022-09-11T03:09:24.599Z,91.50
2022-09-11T03:10:32.188Z,91.50
2022-09-11T03:11:34.490Z,91.50
2022-09-11T03:12:38.090Z,91.60
2022-09-11T03:13:40.767Z,91.60
2022-09-11T03:14:45.503Z,91.60
2022-09-11T03:15:49.418Z,91.60
2022-09-11T03:16:52.863Z,91.60
2022-09-11T03:17:55.441Z,91.60
2022-09-11T03:18:58.808Z,91.60
2022-09-11T03:20:01.341Z,91.60
2022-09-11T03:21:05.900Z,91.60
2022-09-11T03:22:08.298Z,91.60
2022-09-11T03:23:11.864Z,91.60
2022-09-11T03:24:14.483Z,91.60
2022-09-11T03:25:17.872Z,91.60
2022-09-11T03:26:20.891Z,91.60
2022-09-11T03:27:28.301Z,91.60
2022-09-11T03:28:31.338Z,91.60
2022-09-11T03:29:35.113Z,91.60
2022-09-11T03:30:37.784Z,91.70
2022-09-11T03:31:42.501Z,91.70
2022-09-11T03:32:44.895Z,91.70
2022-09-11T03:33:50.780Z,91.80
2022-09-11T03:34:53.225Z,91.80
2022-09-11T03:35:55.605Z,91.80
2022-09-11T03:37:00.211Z,91.90
2022-09-11T03:38:03.998Z,91.90
2022-09-11T03:39:07.753Z,91.90
2022-09-11T03:40:11.555Z,91.90
2022-09-11T03:41:18.445Z,91.90
2022-09-11T03:42:21.492Z,91.90
2022-09-11T03:43:27.285Z,91.90
2022-09-11T03:44:29.558Z,91.90
2022-09-11T03:45:32.870Z,91.90
2022-09-11T03:46:35.668Z,91.90
2022-09-11T03:47:41.632Z,91.90
2022-09-11T03:48:46.157Z,91.90
2022-09-11T03:49:49.841Z,91.90
2022-09-11T03:50:54.771Z,91.90
2022-09-11T03:51:58.218Z,91.90
2022-09-11T03:53:00.960Z,91.90
2022-09-11T03:54:07.288Z,91.90
2022-09-11T03:55:12.164Z,91.90
2022-09-11T03:56:16.040Z,91.90
2022-09-11T03:57:23.860Z,91.90
2022-09-11T03:58:26.297Z,91.90
2022-09-11T03:59:29.605Z,91.90
2022-09-11T04:00:31.800Z,91.90
2022-09-11T04:01:37.698Z,91.90
2022-09-11T04:02:43.663Z,92.00
2022-09-11T04:03:47.009Z,92.00
2022-09-11T04:04:58.345Z,92.00
2022-09-11T04:06:03.461Z,92.00
2022-09-11T04:07:08.592Z,92.00
2022-09-11T04:08:13.950Z,92.00
2022-09-11T04:09:19.586Z,92.00
2022-09-11T04:10:25.866Z,92.00
2022-09-11T04:11:28.522Z,92.00
2022-09-11T04:12:32.380Z,92.00
2022-09-11T04:13:38.764Z,92.00
2022-09-11T04:14:45.032Z,92.00
2022-09-11T04:15:48.059Z,92.00
2022-09-11T04:16:51.345Z,92.00
2022-09-11T04:17:55.300Z,92.00
2022-09-11T04:19:00.917Z,92.00
2022-09-11T04:20:04.326Z,92.10
2022-09-11T04:21:09.504Z,92.10
2022-09-11T04:22:12.037Z,92.10
2022-09-11T04:23:16.703Z,92.10
2022-09-11T04:24:19.881Z,92.10
2022-09-11T04:25:23.362Z,92.20
2022-09-11T04:26:27.914Z,92.20
2022-09-11T04:27:36.819Z,92.20
2022-09-11T04:28:40.692Z,92.20
2022-09-11T04:29:44.000Z,92.30
2022-09-11T04:30:46.501Z,92.30
2022-09-11T04:31:49.987Z,92.30
2022-09-11T04:32:54.326Z,92.30
2022-09-11T04:33:59.670Z,92.40
2022-09-11T04:35:06.772Z,92.40
2022-09-11T04:36:18.355Z,92.40
2022-09-11T04:37:21.036Z,92.40
2022-09-11T04:38:24.960Z,92.40
2022-09-11T04:39:27.873Z,92.40
2022-09-11T04:40:34.276Z,92.40
2022-09-11T04:41:36.804Z,92.40
2022-09-11T04:42:42.581Z,92.50
2022-09-11T04:43:45.852Z,92.50
2022-09-11T04:44:50.696Z,92.50
2022-09-11T04:45:59.595Z,92.50
2022-09-11T04:47:05.823Z,92.50
2022-09-11T04:48:09.870Z,92.50
2022-09-11T04:49:14.741Z,92.50
2022-09-11T04:50:17.383Z,92.50
2022-09-11T04:51:41.682Z,92.50
2022-09-11T04:52:47.373Z,92.50
2022-09-11T04:53:51.372Z,92.50
2022-09-11T04:54:54.050Z,92.50
2022-09-11T04:56:09.606Z,92.50
2022-09-11T04:57:17.536Z,92.50
2022-09-11T04:58:22.837Z,92.50
2022-09-11T04:59:26.629Z,92.50
2022-09-11T05:00:37.575Z,92.50
2022-09-11T05:01:40.437Z,92.50
2022-09-11T05:02:43.769Z,92.60
2022-09-11T05:03:48.223Z,92.60
2022-09-11T05:04:51.791Z,92.60
2022-09-11T05:05:54.185Z,92.60
2022-09-11T05:06:57.422Z,92.60
2022-09-11T05:08:00.810Z,92.60
2022-09-11T05:09:07.001Z,92.70
2022-09-11T05:10:11.158Z,92.70
2022-09-11T05:11:16.895Z,92.80
2022-09-11T05:12:19.286Z,92.70
2022-09-11T05:13:23.616Z,92.70
2022-09-11T05:14:26.037Z,92.70
2022-09-11T05:15:32.164Z,92.70
2022-09-11T05:16:36.620Z,92.70
2022-09-11T05:17:40.902Z,92.70
2022-09-11T05:18:52.599Z,92.80
2022-09-11T05:19:58.856Z,92.80
2022-09-11T05:21:02.183Z,92.80
2022-09-11T05:22:05.782Z,92.80
2022-09-11T05:23:08.822Z,92.80
2022-09-11T05:24:12.561Z,92.80
2022-09-11T05:25:18.449Z,92.80
2022-09-11T05:26:24.585Z,92.90
2022-09-11T05:27:30.062Z,92.80
2022-09-11T05:28:35.342Z,92.90
2022-09-11T05:29:39.234Z,92.90
2022-09-11T05:30:48.799Z,92.90
2022-09-11T05:31:52.687Z,92.90
2022-09-11T05:32:57.253Z,92.90
2022-09-11T05:34:04.462Z,93.00
2022-09-11T05:35:09.204Z,93.00
2022-09-11T05:36:12.699Z,93.00
2022-09-11T05:37:16.424Z,93.00
2022-09-11T05:38:22.283Z,93.00
2022-09-11T05:39:26.363Z,93.00
2022-09-11T05:40:30.951Z,93.00
2022-09-11T05:41:35.697Z,93.00
2022-09-11T05:42:40.136Z,93.00
2022-09-11T05:43:43.221Z,92.90
2022-09-11T05:44:47.298Z,92.90
2022-09-11T05:45:55.635Z,92.90
2022-09-11T05:46:59.572Z,92.90
2022-09-11T05:48:03.444Z,92.90
2022-09-11T05:49:10.049Z,92.90
2022-09-11T05:50:12.382Z,93.00
2022-09-11T05:51:20.091Z,93.00
2022-09-11T05:52:22.602Z,93.00
2022-09-11T05:53:28.155Z,93.00
2022-09-11T05:54:32.057Z,93.00
2022-09-11T05:55:38.531Z,93.00
2022-09-11T05:56:41.630Z,92.90
2022-09-11T05:57:53.237Z,92.90
2022-09-11T05:58:57.789Z,92.90
2022-09-11T06:00:09.141Z,92.90
2022-09-11T06:01:26.921Z,92.90
2022-09-11T06:02:39.575Z,92.90
2022-09-11T06:03:42.333Z,92.80
2022-09-11T06:04:48.908Z,92.70
2022-09-11T06:05:51.280Z,92.70
2022-09-11T06:06:55.010Z,92.70
2022-09-11T06:07:58.079Z,92.70
2022-09-11T06:09:01.684Z,92.60
2022-09-11T06:10:04.823Z,92.60
2022-09-11T06:11:09.587Z,92.50
2022-09-11T06:12:14.765Z,92.40
2022-09-11T06:13:19.605Z,92.40
2022-09-11T06:14:25.364Z,92.40
2022-09-11T06:15:45.658Z,92.30
2022-09-11T06:16:50.877Z,92.20
2022-09-11T06:17:53.813Z,92.20
2022-09-11T06:18:57.432Z,92.10
2022-09-11T06:20:02.305Z,92.10
2022-09-11T06:21:09.684Z,92.10
2022-09-11T06:22:18.353Z,91.90
2022-09-11T06:23:22.223Z,91.80
2022-09-11T06:24:26.093Z,91.70
2022-09-11T06:25:28.692Z,91.70
2022-09-11T06:26:32.098Z,91.60
2022-09-11T06:27:35.666Z,91.40
2022-09-11T06:28:39.696Z,91.30
2022-09-11T06:29:44.904Z,91.20
2022-09-11T06:30:50.138Z,91.10
2022-09-11T06:31:53.888Z,91.00
2022-09-11T06:32:59.200Z,90.90
2022-09-11T06:34:02.596Z,90.80
2022-09-11T06:35:07.621Z,90.60
2022-09-11T06:36:14.243Z,90.50
2022-09-11T06:37:16.674Z,90.30
2022-09-11T06:38:20.217Z,90.10
2022-09-11T06:40:27.176Z,89.70
2022-09-11T06:41:32.999Z,89.50
2022-09-11T06:42:40.677Z,89.40
2022-09-11T06:43:45.180Z,89.30
2022-09-11T06:44:50.854Z,89.20
2022-09-11T06:45:54.925Z,89.00
2022-09-11T06:46:57.565Z,88.80
2022-09-11T06:48:01.490Z,88.70
2022-09-11T06:50:36.985Z,88.60
2022-09-11T06:51:42.292Z,88.50
2022-09-11T06:52:45.828Z,88.50
2022-09-11T06:54:05.494Z,88.30
2022-09-11T06:55:14.535Z,88.30
2022-09-11T06:56:23.422Z,88.00
2022-09-11T06:57:27.468Z,87.80
2022-09-11T06:58:30.132Z,87.60
2022-09-11T06:59:33.942Z,87.50
2022-09-11T07:00:36.776Z,87.30
2022-09-11T07:01:40.722Z,87.10
2022-09-11T07:02:43.338Z,86.60
2022-09-11T07:04:54.298Z,85.70
2022-09-11T07:06:01.367Z,85.40
2022-09-11T07:07:15.497Z,84.90
2022-09-11T07:08:22.971Z,84.50
2022-09-11T07:09:28.020Z,84.10
2022-09-11T07:10:33.571Z,83.80
2022-09-11T07:11:38.668Z,83.40
2022-09-11T07:12:41.871Z,83.00
2022-09-11T07:13:45.517Z,82.40
2022-09-11T07:14:47.963Z,82.00
2022-09-11T07:16:02.425Z,81.00
2022-09-11T07:17:07.401Z,80.60
2022-09-11T07:18:12.324Z,80.10
2022-09-11T07:19:14.777Z,79.40
2022-09-11T07:20:18.777Z,78.80
2022-09-11T07:21:25.167Z,78.00
2022-09-11T07:22:34.418Z,77.40
2022-09-11T07:23:36.938Z,76.90
2022-09-11T07:24:40.364Z,76.10
2022-09-11T07:25:43.663Z,75.80
2022-09-11T07:26:47.498Z,75.20
2022-09-11T07:27:55.587Z,74.50
2022-09-11T07:29:00.119Z,73.70
2022-09-11T07:30:03.351Z,72.90
2022-09-11T07:31:14.503Z,72.20
2022-09-11T07:32:22.287Z,71.60
2022-09-11T07:33:29.281Z,71.00
2022-09-11T07:34:37.980Z,70.70
2022-09-11T07:35:44.852Z,70.10
2022-09-11T07:36:51.802Z,68.60
2022-09-11T07:37:55.042Z,68.70
2022-09-11T07:39:03.757Z,68.30
2022-09-11T07:40:26.008Z,68.00
2022-09-11T07:41:29.204Z,67.50
2022-09-11T07:42:35.885Z,67.30
2022-09-11T07:43:45.508Z,66.80
2022-09-11T07:44:52.802Z,66.30
2022-09-11T07:45:56.576Z,65.40
2022-09-11T07:47:00.869Z,64.90
2022-09-11T07:48:03.668Z,64.80
2022-09-11T07:49:10.061Z,64.70
2022-09-11T07:50:12.964Z,63.80
2022-09-11T07:51:20.544Z,63.50
2022-09-11T07:52:26.924Z,63.30
2022-09-11T07:53:34.680Z,62.70
2022-09-11T07:54:38.829Z,62.20
2022-09-11T07:55:41.567Z,61.90
2022-09-11T07:56:45.066Z,61.40
2022-09-11T07:57:49.634Z,60.70
2022-09-11T08:00:01.867Z,59.50
2022-09-11T08:01:15.027Z,59.20
2022-09-11T08:02:18.199Z,59.00
2022-09-11T08:03:21.805Z,58.60
2022-09-11T08:04:28.928Z,58.80
2022-09-11T08:05:32.230Z,58.40
2022-09-11T08:06:39.445Z,58.10
2022-09-11T08:08:55.282Z,57.70
2022-09-11T08:10:23.354Z,58.10
2022-09-11T08:11:23.161Z,57.80
2022-09-11T08:12:25.594Z,57.00
2022-09-11T08:13:29.559Z,56.40
2022-09-11T08:14:33.740Z,56.20
2022-09-11T08:15:47.929Z,56.10
2022-09-11T08:16:53.595Z,56.40
2022-09-11T08:17:56.572Z,56.70
2022-09-11T08:19:00.153Z,56.90
2022-09-11T08:20:03.076Z,57.40
2022-09-11T08:21:12.774Z,57.90
2022-09-11T08:22:15.568Z,58.40
2022-09-11T08:23:22.986Z,59.20
2022-09-11T08:24:27.392Z,59.30
2022-09-11T08:25:36.713Z,60.10
2022-09-11T08:26:40.184Z,60.70
2022-09-11T08:28:50.219Z,62.00
2022-09-11T08:29:54.191Z,62.50
2022-09-11T08:30:58.800Z,63.00
2022-09-11T08:32:02.592Z,63.70
2022-09-11T08:33:09.620Z,64.20
2022-09-11T08:34:13.667Z,64.80
2022-09-11T08:35:16.102Z,65.30
2022-09-11T08:37:26.146Z,66.20
2022-09-11T08:38:33.293Z,67.00
2022-09-11T08:39:35.709Z,67.80
2022-09-11T08:40:42.048Z,68.00
2022-09-11T08:41:50.855Z,68.10
2022-09-11T08:43:00.643Z,68.70
2022-09-11T08:44:17.649Z,68.90
2022-09-11T08:45:23.528Z,68.70
2022-09-11T08:46:35.089Z,68.40
2022-09-11T08:47:42.782Z,67.40
2022-09-11T08:48:57.524Z,66.20
2022-09-11T08:50:06.150Z,64.30
2022-09-11T08:51:18.072Z,62.90
2022-09-11T08:52:22.083Z,62.70
2022-09-11T08:53:25.801Z,62.00
2022-09-11T08:54:36.481Z,62.40
2022-09-11T08:55:46.788Z,62.30
2022-09-11T08:56:53.740Z,62.00
2022-09-11T08:59:24.926Z,60.40
2022-09-11T09:01:47.158Z,58.50
2022-09-11T09:03:21.368Z,57.80
2022-09-11T09:04:53.425Z,57.10
2022-09-11T09:06:06.415Z,56.30
2022-09-11T09:07:22.977Z,54.60
2022-09-11T09:08:51.770Z,55.00
2022-09-11T09:10:03.353Z,54.30
2022-09-11T09:12:35.455Z,54.00
2022-09-11T09:13:59.219Z,53.60
2022-09-11T09:15:32.735Z,53.10
2022-09-11T09:16:50.758Z,52.70
2022-09-11T09:19:14.748Z,50.90
2022-09-11T09:20:22.590Z,49.80
2022-09-11T09:21:32.392Z,49.40
2022-09-11T09:22:39.385Z,49.00
2022-09-11T09:23:50.462Z,48.70
2022-09-11T09:25:00.375Z,49.60
2022-09-11T09:26:04.737Z,49.70
2022-09-11T09:27:15.083Z,50.50
2022-09-11T09:29:37.069Z,50.00
2022-09-11T09:30:48.248Z,50.10
2022-09-11T09:32:00.284Z,50.00
2022-09-11T09:33:27.291Z,49.90
2022-09-11T09:34:35.008Z,50.00
2022-09-11T09:35:43.655Z,50.10
2022-09-11T09:36:57.501Z,50.50
2022-09-11T09:38:01.613Z,50.90
2022-09-11T09:39:12.834Z,50.60
2022-09-11T09:40:19.663Z,50.20
2022-09-11T09:42:13.798Z,50.10
2022-09-11T09:43:37.257Z,50.10
2022-09-11T09:44:57.076Z,51.10
2022-09-11T09:46:14.935Z,51.40
2022-09-11T09:47:19.862Z,52.30
2022-09-11T09:48:23.622Z,52.90
2022-09-11T09:49:33.010Z,52.90
2022-09-11T09:50:40.887Z,53.40
2022-09-11T09:51:43.446Z,53.70
2022-09-11T09:52:49.694Z,54.50
2022-09-11T09:53:57.528Z,54.70
2022-09-11T09:55:01.973Z,55.10
2022-09-11T09:56:07.605Z,55.90
2022-09-11T09:57:11.937Z,56.50
2022-09-11T09:58:15.694Z,57.40
2022-09-11T09:59:27.516Z,58.00
2022-09-11T10:00:32.697Z,58.20
2022-09-11T10:01:51.207Z,57.80
2022-09-11T10:02:57.260Z,57.40
2022-09-11T10:04:11.152Z,57.20
2022-09-11T10:05:27.092Z,56.70
2022-09-11T10:06:31.812Z,56.30
2022-09-11T10:07:35.068Z,55.70
2022-09-11T10:08:38.370Z,54.70
2022-09-11T10:09:48.245Z,54.50
2022-09-11T10:10:57.351Z,54.10
2022-09-11T10:12:06.294Z,53.50
2022-09-11T10:13:24.885Z,53.30
2022-09-11T10:14:50.301Z,52.70
2022-09-11T10:15:52.087Z,52.60
2022-09-11T10:16:54.899Z,51.40
2022-09-11T10:18:24.921Z,50.80
2022-09-11T10:19:43.157Z,50.00
2022-09-11T10:20:48.213Z,49.70
2022-09-11T10:21:53.860Z,49.60
2022-09-11T10:22:56.481Z,49.90
2022-09-11T10:24:02.111Z,49.20
2022-09-11T10:25:13.998Z,49.80
2022-09-11T10:26:25.557Z,49.50
2022-09-11T10:27:36.016Z,49.50
2022-09-11T10:28:39.394Z,48.80
2022-09-11T10:29:50.157Z,48.90
2022-09-11T10:31:00.439Z,48.80
2022-09-11T10:32:04.112Z,48.00
2022-09-11T10:33:20.173Z,48.10
2022-09-11T10:34:26.292Z,47.90
2022-09-11T10:35:32.346Z,47.80
2022-09-11T10:36:35.097Z,47.70
2022-09-11T10:37:40.679Z,46.50
2022-09-11T10:38:49.028Z,46.50
2022-09-11T10:39:52.588Z,46.90
2022-09-11T10:41:11.346Z,47.30
2022-09-11T10:42:23.253Z,47.30
2022-09-11T10:43:40.780Z,47.80
2022-09-11T10:44:46.960Z,47.60
2022-09-11T10:46:21.929Z,47.40
2022-09-11T10:47:26.633Z,47.30
2022-09-11T10:48:29.926Z,46.70
2022-09-11T10:49:36.221Z,47.40
2022-09-11T10:50:38.490Z,47.60
2022-09-11T10:51:47.441Z,47.50
2022-09-11T10:53:12.798Z,47.70
2022-09-11T10:54:31.155Z,48.10
2022-09-11T10:55:39.328Z,48.20
2022-09-11T10:57:04.735Z,47.90
2022-09-11T10:58:14.706Z,48.60
2022-09-11T10:59:25.405Z,47.70
2022-09-11T11:00:31.435Z,47.60
2022-09-11T11:01:33.786Z,47.20
2022-09-11T11:02:41.200Z,47.00
2022-09-11T11:03:46.759Z,47.20
2022-09-11T11:04:49.346Z,45.70
2022-09-11T11:06:10.041Z,46.90
2022-09-11T11:07:36.446Z,47.20
2022-09-11T11:09:11.262Z,47.10
2022-09-11T11:10:28.455Z,47.60
2022-09-11T11:11:50.560Z,47.50
2022-09-11T11:13:13.383Z,47.00
2022-09-11T11:14:45.750Z,47.50
2022-09-11T11:15:59.695Z,47.80
2022-09-11T11:17:19.362Z,45.70
2022-09-11T11:18:54.690Z,46.90
2022-09-11T11:20:24.752Z,47.10
2022-09-11T11:21:45.590Z,47.80
2022-09-11T11:23:16.648Z,48.00
2022-09-11T11:24:37.858Z,47.80
2022-09-11T11:25:51.022Z,48.60
2022-09-11T11:27:10.941Z,47.90
2022-09-11T11:28:29.783Z,48.00
2022-09-11T11:30:04.242Z,48.20
2022-09-11T11:31:27.884Z,48.50
2022-09-11T11:32:58.950Z,47.20
2022-09-11T11:34:33.582Z,47.00
2022-09-11T11:35:44.723Z,47.10
2022-09-11T11:36:57.699Z,46.30
2022-09-11T11:38:12.817Z,46.60
2022-09-11T11:39:25.549Z,46.90
2022-09-11T11:40:32.993Z,47.20
2022-09-11T11:41:42.266Z,47.30
2022-09-11T11:42:56.361Z,46.90
2022-09-11T11:44:03.562Z,46.90
2022-09-11T11:45:24.054Z,46.80
2022-09-11T11:46:35.787Z,46.10
2022-09-11T11:47:44.862Z,46.70
2022-09-11T11:48:56.291Z,47.30
2022-09-11T11:50:07.936Z,47.20
2022-09-11T11:51:16.964Z,47.80
2022-09-11T11:52:39.508Z,47.50
2022-09-11T11:54:00.033Z,47.80
2022-09-11T11:55:15.037Z,47.30
2022-09-11T11:56:28.766Z,47.40
2022-09-11T11:57:40.201Z,46.70
2022-09-11T11:58:53.016Z,47.20
2022-09-11T12:00:02.858Z,47.80
2022-09-11T12:01:25.557Z,47.40
2022-09-11T12:02:33.950Z,47.80
2022-09-11T12:03:43.998Z,47.50
2022-09-11T12:04:54.272Z,46.10
2022-09-11T12:05:58.258Z,46.30
2022-09-11T12:07:02.729Z,46.70
2022-09-11T12:08:11.880Z,46.90
2022-09-11T12:09:19.093Z,47.10
2022-09-11T12:10:30.064Z,47.30
2022-09-11T12:11:36.861Z,46.30
2022-09-11T12:12:47.711Z,46.10
2022-09-11T12:13:51.087Z,46.60
2022-09-11T12:14:57.317Z,46.70
2022-09-11T12:16:15.078Z,47.20
2022-09-11T12:17:28.150Z,46.80
2022-09-11T12:18:32.237Z,46.60
2022-09-11T12:19:34.493Z,46.60
2022-09-11T12:20:41.803Z,46.40
2022-09-11T12:22:12.929Z,46.60
2022-09-11T12:23:34.901Z,45.40
2022-09-11T12:24:59.678Z,45.30
2022-09-11T12:26:19.625Z,44.80
2022-09-11T12:27:55.780Z,45.10
2022-09-11T12:29:53.750Z,46.00
2022-09-11T12:31:02.964Z,46.70
2022-09-11T12:32:29.718Z,46.60
2022-09-11T12:34:16.640Z,45.70
2022-09-11T12:35:34.988Z,46.10
2022-09-11T12:36:53.839Z,46.10
2022-09-11T12:38:02.639Z,46.60
2022-09-11T12:39:24.005Z,46.40
2022-09-11T12:40:34.747Z,47.00
2022-09-11T12:41:38.432Z,47.20
2022-09-11T12:42:57.610Z,47.60
2022-09-11T12:44:04.096Z,46.90
2022-09-11T12:45:34.519Z,46.80
2022-09-11T12:47:18.592Z,46.70
2022-09-11T12:48:26.027Z,47.00
2022-09-11T12:49:29.431Z,46.90
2022-09-11T12:50:32.593Z,46.40
2022-09-11T12:51:40.131Z,46.00
2022-09-11T12:52:52.923Z,46.00
2022-09-11T12:54:00.402Z,46.40
2022-09-11T12:55:20.824Z,46.80
2022-09-11T12:56:27.380Z,46.90
2022-09-11T12:57:35.375Z,46.70
2022-09-11T12:58:41.875Z,46.60
2022-09-11T12:59:52.650Z,47.10
2022-09-11T13:01:08.506Z,47.00
2022-09-11T13:02:26.099Z,47.00
2022-09-11T13:03:31.797Z,46.30
2022-09-11T13:04:36.788Z,46.10
2022-09-11T13:05:41.857Z,45.90
2022-09-11T13:06:48.986Z,46.30
2022-09-11T13:07:57.808Z,45.80
2022-09-11T13:09:02.388Z,46.30
2022-09-11T13:10:11.590Z,46.10
2022-09-11T13:11:41.934Z,46.60
2022-09-11T13:12:54.100Z,46.00
2022-09-11T13:13:57.692Z,46.20
2022-09-11T13:15:00.794Z,46.10
2022-09-11T13:16:20.044Z,46.00
2022-09-11T13:17:28.020Z,46.20
2022-09-11T13:18:35.470Z,46.90
2022-09-11T13:19:39.850Z,46.80
2022-09-11T13:20:43.111Z,47.50
2022-09-11T13:21:52.131Z,46.80
2022-09-11T13:23:18.396Z,47.10
2022-09-11T13:24:27.473Z,46.90
2022-09-11T13:25:32.068Z,47.20
2022-09-11T13:26:35.511Z,47.30
2022-09-11T13:27:43.588Z,46.70
2022-09-11T13:28:53.246Z,47.00
2022-09-11T13:29:58.129Z,47.30
2022-09-11T13:31:05.017Z,47.40
2022-09-11T13:32:14.338Z,47.60
2022-09-11T13:33:23.954Z,48.10
2022-09-11T13:34:29.679Z,48.20
2022-09-11T13:35:34.295Z,48.40
2022-09-11T13:36:37.903Z,48.50
2022-09-11T13:37:47.009Z,48.40
2022-09-11T13:38:57.971Z,48.70
2022-09-11T13:40:02.176Z,48.80
2022-09-11T13:41:15.050Z,49.10
2022-09-11T13:42:21.740Z,49.40
2022-09-11T13:43:30.887Z,49.60
2022-09-11T13:44:41.032Z,49.90
2022-09-11T13:45:44.713Z,50.10
2022-09-11T13:46:52.324Z,50.20
2022-09-11T13:47:55.796Z,50.60
2022-09-11T13:49:27.630Z,50.80
2022-09-11T13:50:33.690Z,50.80
2022-09-11T13:51:40.878Z,51.50
2022-09-11T13:52:45.922Z,51.90
2022-09-11T13:54:03.972Z,52.00
2022-09-11T13:55:11.566Z,51.60
2022-09-11T13:56:36.080Z,52.10
2022-09-11T13:57:54.467Z,52.30
2022-09-11T13:59:00.036Z,51.50
2022-09-11T14:00:06.258Z,51.40
2022-09-11T14:01:16.916Z,51.60
2022-09-11T14:02:47.812Z,51.30
2022-09-11T14:03:54.259Z,51.60
2022-09-11T14:05:09.239Z,51.20
2022-09-11T14:06:19.952Z,51.20
2022-09-11T14:07:25.830Z,50.90
2022-09-11T14:08:34.265Z,50.90
2022-09-11T14:09:36.600Z,51.00
2022-09-11T14:10:48.510Z,51.10
2022-09-11T14:11:51.409Z,51.50
2022-09-11T14:13:15.160Z,51.20
2022-09-11T14:14:25.164Z,50.90
2022-09-11T14:15:43.624Z,50.70
2022-09-11T14:16:51.088Z,50.50
2022-09-11T14:17:54.667Z,50.60
2022-09-11T14:19:07.384Z,50.60
2022-09-11T14:20:20.078Z,50.30
2022-09-11T14:21:33.676Z,50.00
2022-09-11T14:22:36.772Z,50.00
2022-09-11T14:23:45.644Z,50.10
2022-09-11T14:24:56.861Z,50.00
2022-09-11T14:26:16.626Z,50.00
2022-09-11T14:27:43.923Z,49.40
2022-09-11T14:29:03.238Z,50.20
2022-09-11T14:30:37.502Z,49.80
2022-09-11T14:31:44.070Z,50.00
2022-09-11T14:32:46.568Z,49.60
2022-09-11T14:33:50.001Z,49.70
2022-09-11T14:34:52.688Z,49.40
2022-09-11T14:36:07.933Z,49.60
2022-09-11T14:37:16.165Z,49.40
2022-09-11T14:38:22.200Z,49.70
2022-09-11T14:39:34.566Z,49.90
2022-09-11T14:40:37.104Z,50.00
2022-09-11T14:41:42.153Z,49.80
2022-09-11T14:42:45.336Z,49.10
2022-09-11T14:43:49.596Z,49.50
2022-09-11T14:44:53.316Z,49.70
2022-09-11T14:45:57.821Z,49.90
2022-09-11T14:47:01.119Z,50.10
2022-09-11T14:48:10.351Z,50.50
2022-09-11T14:49:16.700Z,50.30
2022-09-11T14:50:19.410Z,50.60
2022-09-11T14:51:22.743Z,50.80
2022-09-11T14:52:28.748Z,50.80
2022-09-11T14:53:35.698Z,51.10
2022-09-11T14:54:38.225Z,51.20
2022-09-11T14:55:43.825Z,51.30
2022-09-11T14:56:49.087Z,51.10
2022-09-11T14:57:54.293Z,51.30
2022-09-11T14:58:58.721Z,51.60
2022-09-11T15:00:01.686Z,51.70
2022-09-11T15:01:05.185Z,51.80
2022-09-11T15:02:11.904Z,51.90
2022-09-11T15:03:15.265Z,51.90
2022-09-11T15:04:21.004Z,52.10
2022-09-11T15:05:25.491Z,52.30